Tocumen International Airport
MPTO : now visible

Airfield :











YOU CAN JOIN US ON...

 
LOGIN :

Register | Disclaimer

   EN    FR    IT 

 









Legend :    VFR   Marginal VFR   IFR   Intensive IFR   Very Intensive IFR
Visi :
Ceiling :
>= 8 km
>= 3000ft
5 to 8 km
1000 to 3000 ft
1500m to 5 km
500 to 1000 ft
800 to 1500m
200 to 500 ft
< 800m
< 200 ft
Symbols :   Thunderstorms  Fog  Heavy snow  Heavy precipitations  Wind > 20 kt






- Airport Elevation : 135 ft
- IATA code : PTY


MPTO - Tocumen International

CURRENT METAR :
  • 072100Z 06005KT 9000 -RA SCT008 SCT016CB SCT090 26/25 Q1010 RETS RWY DAMP NOSIG

EXPIRED METARs :
  • 072000Z 27003KT 8000 TSVCSH SCT016CB SCT090 27/23 Q1011 TEMPO 6000 TSRA
  • 071900Z 14007KT 9000 TSVCSH SCT016CB SCT090 30/25 Q1011 TEMPO 6000 TSRA

TAF TAF MPTO
Valid from the 07 at 18:00 until the 09 at 00:00 UTC


071700Z 0718/0824 28006KT 9999 SCT018
PROB30
TEMPO 0720/0722 20006KT 6000 SHRA SCT015CB BKN080
TEMPO 0810/0812 00000KT



MET'MAP, your aeronautical weather chart ! - Copyright ORBIFLY December 2007 - Disclaimer

ORBIFLY MET'MAP TEAM :

Programming & Development : Alexandra Zaïnal
Concept & original design : Baudouin d'Aumeries
Assistance for programming : Marc-Olivier Méhu
Technical & hardware support : Manuel Goepfert

Contact : metmap@orbifly.com




SOURCES & CREDITS :

   NOAA       Earth
Advisory